Time;durP1;ratioP1;P1;durP2;ratioP2;P2;SDS_P1;SDS_P2;PMS_P1;PMS_P2;Temp;Humidity;BMP_temperature;BMP_pressure;BME280_temperature;BME280_humidity;BME280_pressure;Samples;Min_cycle;Max_cycle;Signal;HPM_P1;HPM_P2
2023/05/23 00:01:02;;;;;;;0.20;0.20;;;13.30;90.10;;;;;;5008433;28;20034;-66
2023/05/23 00:03:30;;;;;;;1.10;1.00;;;13.30;89.90;;;;;;5007119;28;20057;-65
2023/05/23 00:05:56;;;;;;;0.43;0.43;;;13.20;90.10;;;;;;5008685;28;20060;-65
2023/05/23 00:08:21;;;;;;;0.38;0.38;;;13.20;90.20;;;;;;5008764;28;20418;-64
2023/05/23 00:10:47;;;;;;;5.43;1.35;;;13.20;90.60;;;;;;5009188;28;20042;-64
2023/05/23 00:13:13;;;;;;;0.20;0.20;;;13.20;90.70;;;;;;5008779;28;20050;-65
2023/05/23 00:15:42;;;;;;;1.45;0.65;;;13.20;90.70;;;;;;5008710;28;20050;-65
2023/05/23 00:18:09;;;;;;;0.95;0.95;;;13.20;90.60;;;;;;5009190;28;20045;-65
2023/05/23 00:20:41;;;;;;;0.00;0.00;;;13.10;90.70;;;;;;4991284;28;20052;-64
2023/05/23 00:23:17;;;;;;;1.15;1.10;;;13.20;90.50;;;;;;5000665;28;20049;-65
2023/05/23 00:25:51;;;;;;;0.00;0.00;;;13.10;90.40;;;;;;5008134;28;20050;-65
2023/05/23 00:28:17;;;;;;;2.17;1.17;;;13.20;90.20;;;;;;5010489;28;20053;-65
2023/05/23 00:30:42;;;;;;;0.00;0.00;;;13.10;90.20;;;;;;5013050;28;20050;-66
2023/05/23 00:33:08;;;;;;;0.10;0.10;;;13.20;90.20;;;;;;5012639;28;20048;-65
2023/05/23 00:35:33;;;;;;;0.00;0.00;;;13.10;90.20;;;;;;5012565;28;20068;-65
2023/05/23 00:38:01;;;;;;;0.45;0.45;;;13.20;89.80;;;;;;5012737;28;20042;-65
2023/05/23 00:40:26;;;;;;;0.45;0.43;;;13.20;89.80;;;;;;5012714;28;20053;-65
2023/05/23 00:42:52;;;;;;;0.00;0.00;;;13.10;89.70;;;;;;5002782;28;20042;-65
2023/05/23 00:45:17;;;;;;;2.28;1.67;;;13.20;89.60;;;;;;5012895;28;20072;-65
2023/05/23 00:47:46;;;;;;;0.10;0.10;;;13.10;89.70;;;;;;5012258;28;20394;-64
2023/05/23 00:50:16;;;;;;;0.00;0.00;;;13.20;89.30;;;;;;5012400;28;20053;-65
2023/05/23 00:52:43;;;;;;;0.10;0.10;;;13.10;89.30;;;;;;5013567;28;20049;-64
2023/05/23 00:55:09;;;;;;;0.05;0.05;;;13.10;89.40;;;;;;4995404;28;20049;-65
2023/05/23 00:57:39;;;;;;;0.15;0.15;;;13.10;89.30;;;;;;5011142;28;20569;-65
2023/05/23 01:00:09;;;;;;;0.40;0.40;;;13.10;89.10;;;;;;5012211;28;20092;-65
2023/05/23 01:02:40;;;;;;;3.72;2.30;;;13.10;89.00;;;;;;5012272;28;20418;-65
2023/05/23 01:05:06;;;;;;;0.43;0.43;;;13.10;89.00;;;;;;5012453;28;20462;-64
2023/05/23 01:07:31;;;;;;;0.85;0.85;;;13.10;88.90;;;;;;4994355;28;20050;-65
2023/05/23 01:09:57;;;;;;;0.70;0.57;;;13.10;89.00;;;;;;5012035;28;20065;-65
2023/05/23 01:12:45;;;;;;;0.05;0.05;;;13.10;88.80;;;;;;5011509;28;20046;-65
2023/05/23 01:15:18;;;;;;;0.20;0.20;;;13.10;88.70;;;;;;5011403;28;20046;-65
2023/05/23 01:17:58;;;;;;;2.90;0.73;;;13.10;88.50;;;;;;5012228;28;20046;-65
2023/05/23 01:20:30;;;;;;;0.08;0.08;;;13.10;88.50;;;;;;5011116;28;20068;-65
2023/05/23 01:23:01;;;;;;;0.30;0.30;;;13.10;88.40;;;;;;5011658;28;20056;-64
2023/05/23 01:25:44;;;;;;;0.25;0.20;;;13.10;88.30;;;;;;5011338;28;20503;-65
2023/05/23 01:28:15;;;;;;;0.20;0.20;;;13.10;88.20;;;;;;5010175;28;20228;-65
2023/05/23 01:30:43;;;;;;;0.20;0.20;;;13.10;88.10;;;;;;5011088;28;20481;-65
2023/05/23 01:33:11;;;;;;;0.00;0.00;;;13.10;88.00;;;;;;5012250;28;20176;-65
2023/05/23 01:35:37;;;;;;;0.00;0.00;;;13.10;87.90;;;;;;5011277;28;20072;-65
2023/05/23 01:38:03;;;;;;;0.00;0.00;;;13.10;87.80;;;;;;4994131;28;20124;-65
2023/05/23 01:40:28;;;;;;;0.10;0.10;;;13.10;87.70;;;;;;5010723;28;20203;-65
2023/05/23 01:42:56;;;;;;;1.95;0.50;;;13.10;87.60;;;;;;5010550;28;20085;-65
2023/05/23 01:45:25;;;;;;;1.40;1.17;;;13.10;87.60;;;;;;5011864;28;20103;-65
2023/05/23 01:47:52;;;;;;;0.00;0.00;;;13.10;87.70;;;;;;5010856;28;20113;-65
2023/05/23 01:50:18;;;;;;;0.00;0.00;;;13.10;87.50;;;;;;5010654;28;20058;-65
2023/05/23 01:52:46;;;;;;;0.00;0.00;;;13.10;87.40;;;;;;5011860;28;20095;-65
2023/05/23 01:55:14;;;;;;;0.25;0.25;;;13.10;87.40;;;;;;5011058;28;20532;-64
2023/05/23 01:57:42;;;;;;;0.40;0.40;;;13.10;87.40;;;;;;5011324;28;20112;-65
2023/05/23 02:00:11;;;;;;;0.95;0.95;;;13.10;87.40;;;;;;5010979;28;20526;-66
2023/05/23 02:02:36;;;;;;;0.00;0.00;;;13.20;87.20;;;;;;5010839;28;20046;-65
2023/05/23 02:05:03;;;;;;;21.63;1.98;;;13.20;87.00;;;;;;5011419;28;20044;-65
2023/05/23 02:07:28;;;;;;;3.10;1.65;;;13.20;87.00;;;;;;5010990;28;20057;-64
2023/05/23 02:09:54;;;;;;;17.83;0.47;;;13.20;86.60;;;;;;5009299;28;20042;-65
2023/05/23 02:12:20;;;;;;;10.10;1.75;;;13.10;86.40;;;;;;5010085;28;20511;-65
2023/05/23 02:14:46;;;;;;;2.28;1.35;;;13.10;86.40;;;;;;5011163;28;20041;-65
2023/05/23 02:17:13;;;;;;;0.20;0.20;;;13.10;86.60;;;;;;5009964;28;20086;-65
2023/05/23 02:19:39;;;;;;;0.43;0.43;;;13.10;86.60;;;;;;5010534;28;20050;-65
2023/05/23 02:22:05;;;;;;;0.25;0.25;;;13.10;86.50;;;;;;5010997;28;20036;-65
2023/05/23 02:24:30;;;;;;;0.43;0.43;;;13.10;86.60;;;;;;5010830;28;20042;-64
2023/05/23 02:26:56;;;;;;;0.15;0.15;;;13.10;86.50;;;;;;5010171;28;20077;-65
2023/05/23 02:29:21;;;;;;;0.00;0.00;;;13.00;86.80;;;;;;5010513;28;20038;-65
2023/05/23 02:31:47;;;;;;;1.30;1.20;;;12.90;86.90;;;;;;5010921;28;20038;-65
2023/05/23 02:34:13;;;;;;;0.10;0.10;;;12.80;87.10;;;;;;5009112;28;20075;-65
2023/05/23 02:36:39;;;;;;;0.47;0.47;;;12.80;87.20;;;;;;5009979;28;20042;-65
2023/05/23 02:39:05;;;;;;;5.88;2.33;;;12.90;87.20;;;;;;5010257;28;20069;-65
2023/05/23 02:41:31;;;;;;;0.10;0.10;;;12.80;87.20;;;;;;5010491;28;20042;-65
2023/05/23 02:43:57;;;;;;;0.00;0.00;;;12.80;86.80;;;;;;5010118;28;20056;-65
2023/05/23 02:46:23;;;;;;;3.03;1.50;;;12.80;86.80;;;;;;5010259;28;20117;-65
2023/05/23 02:48:48;;;;;;;0.00;0.00;;;12.90;86.60;;;;;;5009016;28;20128;-65
2023/05/23 02:51:14;;;;;;;0.10;0.10;;;12.70;87.00;;;;;;5008991;28;20133;-65
2023/05/23 02:53:40;;;;;;;0.20;0.20;;;12.80;87.10;;;;;;4992650;28;20510;-64
2023/05/23 02:56:06;;;;;;;0.25;0.25;;;12.70;87.00;;;;;;5010114;28;20045;-67
2023/05/23 02:58:34;;;;;;;0.00;0.00;;;12.70;87.10;;;;;;5009986;28;20121;-65
2023/05/23 03:01:02;;;;;;;0.00;0.00;;;12.70;87.00;;;;;;5010297;28;20042;-65
2023/05/23 03:03:30;;;;;;;2.55;1.25;;;12.70;86.90;;;;;;5010260;28;20526;-65
2023/05/23 03:05:59;;;;;;;0.00;0.00;;;12.70;87.00;;;;;;5008903;28;20128;-65
2023/05/23 03:08:24;;;;;;;0.00;0.00;;;12.70;87.00;;;;;;4994613;28;20045;-65
2023/05/23 03:10:50;;;;;;;0.00;0.00;;;12.60;87.00;;;;;;5010016;28;20042;-65
2023/05/23 03:13:16;;;;;;;0.00;0.00;;;12.60;87.00;;;;;;5008758;28;20176;-65
2023/05/23 03:15:42;;;;;;;0.32;0.32;;;12.60;86.90;;;;;;5009899;28;20510;-65
2023/05/23 03:18:07;;;;;;;0.00;0.00;;;12.60;86.60;;;;;;5009936;28;20133;-65
2023/05/23 03:20:33;;;;;;;0.28;0.28;;;12.60;86.60;;;;;;5010049;28;20131;-65
2023/05/23 03:22:58;;;;;;;0.00;0.00;;;12.60;86.70;;;;;;5009072;28;20056;-65
2023/05/23 03:25:24;;;;;;;0.88;0.85;;;12.60;86.40;;;;;;5010173;28;20498;-65
2023/05/23 03:27:50;;;;;;;0.10;0.10;;;12.60;86.40;;;;;;4991579;28;20069;-65
2023/05/23 03:30:16;;;;;;;0.00;0.00;;;12.60;86.10;;;;;;5009457;28;20050;-65
2023/05/23 03:32:42;;;;;;;3.78;1.80;;;12.70;86.10;;;;;;5009172;28;20046;-65
2023/05/23 03:35:07;;;;;;;0.00;0.00;;;12.60;85.90;;;;;;5009942;28;20052;-65
2023/05/23 03:37:33;;;;;;;0.00;0.00;;;12.50;86.30;;;;;;5008530;28;20054;-65
2023/05/23 03:39:59;;;;;;;0.00;0.00;;;12.60;86.40;;;;;;5008969;28;20100;-65
2023/05/23 03:42:24;;;;;;;0.20;0.20;;;12.60;86.30;;;;;;5009436;28;20048;-64
2023/05/23 03:44:50;;;;;;;0.05;0.05;;;12.60;86.20;;;;;;5008847;28;20052;-65
2023/05/23 03:47:15;;;;;;;0.95;0.95;;;12.50;86.50;;;;;;5008916;28;20125;-65
2023/05/23 03:49:41;;;;;;;0.00;0.00;;;12.50;86.20;;;;;;5007391;28;20062;-65
2023/05/23 03:52:07;;;;;;;0.00;0.00;;;12.50;86.20;;;;;;5009069;28;20100;-65
2023/05/23 03:54:32;;;;;;;0.00;0.00;;;12.50;86.00;;;;;;5009963;28;20053;-65
2023/05/23 03:56:58;;;;;;;0.20;0.20;;;12.50;86.40;;;;;;5008088;28;20038;-64
2023/05/23 03:59:23;;;;;;;0.10;0.10;;;12.40;86.30;;;;;;5007371;28;20415;-66
2023/05/23 04:01:49;;;;;;;0.03;0.03;;;12.40;86.00;;;;;;5009179;28;20457;-65
2023/05/23 04:04:16;;;;;;;0.00;0.00;;;12.40;85.60;;;;;;5008796;28;20116;-65
2023/05/23 04:06:41;;;;;;;0.45;0.45;;;12.30;85.30;;;;;;5008119;28;20734;-65
2023/05/23 04:09:07;;;;;;;0.25;0.25;;;12.30;85.30;;;;;;5007788;28;20146;-65
2023/05/23 04:11:33;;;;;;;0.00;0.00;;;12.20;84.90;;;;;;5008796;28;20129;-64
2023/05/23 04:14:00;;;;;;;0.28;0.28;;;12.20;85.20;;;;;;5009385;28;20156;-65
2023/05/23 04:16:26;;;;;;;0.10;0.10;;;12.20;85.10;;;;;;5009196;28;20058;-65
2023/05/23 04:18:53;;;;;;;0.00;0.00;;;12.20;85.20;;;;;;5007449;28;20554;-65
2023/05/23 04:21:18;;;;;;;0.00;0.00;;;12.20;85.40;;;;;;5008906;28;20496;-64
2023/05/23 04:23:44;;;;;;;0.00;0.00;;;12.30;84.90;;;;;;5008950;28;20053;-67
2023/05/23 04:26:10;;;;;;;0.65;0.43;;;12.20;84.80;;;;;;5009277;28;20041;-65
2023/05/23 04:28:36;;;;;;;0.30;0.30;;;12.20;84.90;;;;;;5008493;28;20030;-65
2023/05/23 04:31:02;;;;;;;0.10;0.10;;;12.10;85.10;;;;;;5008763;28;20049;-65
2023/05/23 04:33:29;;;;;;;0.00;0.00;;;12.10;84.80;;;;;;5007790;28;20045;-65
2023/05/23 04:35:55;;;;;;;0.38;0.38;;;12.10;84.80;;;;;;5008825;28;20054;-65
2023/05/23 04:38:21;;;;;;;1.75;0.47;;;12.10;84.70;;;;;;5008542;28;21216;-65
2023/05/23 04:40:48;;;;;;;0.00;0.00;;;12.00;84.90;;;;;;5008708;28;20438;-68
2023/05/23 04:43:15;;;;;;;0.00;0.00;;;12.00;84.80;;;;;;5004429;28;20752;-68
2023/05/23 04:45:40;;;;;;;0.00;0.00;;;11.90;84.60;;;;;;5007718;28;20068;-65
2023/05/23 04:48:07;;;;;;;0.47;0.47;;;11.90;84.90;;;;;;4996145;28;20050;-64
2023/05/23 04:50:33;;;;;;;0.00;0.00;;;11.90;85.10;;;;;;5007167;28;20054;-65
2023/05/23 04:52:58;;;;;;;0.00;0.00;;;11.90;84.60;;;;;;4998366;28;20044;-65
2023/05/23 04:55:24;;;;;;;1.33;0.70;;;11.90;85.00;;;;;;5004436;28;20388;-65
2023/05/23 04:57:49;;;;;;;0.00;0.00;;;11.90;84.60;;;;;;4996257;28;20047;-65
2023/05/23 05:00:15;;;;;;;0.00;0.00;;;11.80;84.30;;;;;;5007848;28;20053;-65
2023/05/23 05:02:41;;;;;;;0.00;0.00;;;11.80;84.50;;;;;;4989262;28;20136;-65
2023/05/23 05:05:07;;;;;;;0.00;0.00;;;11.70;84.60;;;;;;5003169;28;20121;-65
2023/05/23 05:07:34;;;;;;;0.00;0.00;;;11.70;84.50;;;;;;5008372;28;20048;-65
2023/05/23 05:10:00;;;;;;;0.00;0.00;;;11.70;84.50;;;;;;5006880;28;20108;-65
2023/05/23 05:12:25;;;;;;;1.20;0.98;;;11.70;84.60;;;;;;5040161;28;20049;-64
2023/05/23 05:14:51;;;;;;;0.10;0.10;;;11.80;84.70;;;;;;5008678;28;20046;-65
2023/05/23 05:17:18;;;;;;;0.10;0.10;;;11.80;84.10;;;;;;4993487;28;20042;-65
2023/05/23 05:19:44;;;;;;;0.20;0.20;;;11.80;83.60;;;;;;4993015;28;20042;-65
2023/05/23 05:22:10;;;;;;;0.00;0.00;;;11.80;83.50;;;;;;5011755;28;20089;-65
2023/05/23 05:24:36;;;;;;;0.00;0.00;;;11.90;83.60;;;;;;5011244;28;20085;-65
2023/05/23 05:27:02;;;;;;;1.45;0.98;;;11.70;83.50;;;;;;5011271;28;20054;-65
2023/05/23 05:29:27;;;;;;;0.00;0.00;;;11.70;84.10;;;;;;5009548;28;20042;-65
2023/05/23 05:31:53;;;;;;;0.70;0.70;;;11.60;84.50;;;;;;5009454;28;20761;-65
2023/05/23 05:34:18;;;;;;;0.00;0.00;;;11.60;84.60;;;;;;5025608;28;20045;-66
2023/05/23 05:36:47;;;;;;;0.00;0.00;;;11.70;84.80;;;;;;5011014;28;20057;-65
2023/05/23 05:39:13;;;;;;;0.00;0.00;;;11.70;85.00;;;;;;5009734;28;20042;-65
2023/05/23 05:41:39;;;;;;;0.28;0.28;;;11.80;84.90;;;;;;5008822;28;20057;-66
2023/05/23 05:44:06;;;;;;;0.00;0.00;;;11.80;84.70;;;;;;5016684;28;20053;-66
2023/05/23 05:46:32;;;;;;;0.00;0.00;;;11.80;84.60;;;;;;5013397;28;20082;-65
2023/05/23 05:48:57;;;;;;;1.35;1.25;;;11.70;84.40;;;;;;5005096;28;20082;-66
2023/05/23 05:51:23;;;;;;;0.08;0.08;;;11.70;84.30;;;;;;5011072;28;20057;-65
2023/05/23 05:53:48;;;;;;;0.00;0.00;;;11.70;84.20;;;;;;5010783;28;20048;-65
2023/05/23 05:56:14;;;;;;;0.00;0.00;;;11.70;84.30;;;;;;5008779;28;20061;-65
2023/05/23 05:58:40;;;;;;;0.00;0.00;;;11.60;83.70;;;;;;5010732;28;20073;-65
2023/05/23 06:01:05;;;;;;;0.00;0.00;;;11.70;83.60;;;;;;5010663;28;20172;-65
2023/05/23 06:03:32;;;;;;;0.00;0.00;;;11.70;82.80;;;;;;5009810;28;20073;-66
2023/05/23 06:05:58;;;;;;;0.00;0.00;;;11.70;82.00;;;;;;5007809;28;20054;-66
2023/05/23 06:08:24;;;;;;;0.30;0.30;;;11.80;81.60;;;;;;5010031;28;20448;-65
2023/05/23 06:10:49;;;;;;;0.17;0.17;;;11.90;81.90;;;;;;5009933;28;20046;-64
2023/05/23 06:13:15;;;;;;;0.00;0.00;;;11.90;81.40;;;;;;5003088;28;20895;-66
2023/05/23 06:15:41;;;;;;;0.00;0.00;;;12.00;80.50;;;;;;5005982;28;20725;-64
2023/05/23 06:18:06;;;;;;;1.00;0.95;;;12.10;79.70;;;;;;5006594;28;20044;-64
2023/05/23 06:20:32;;;;;;;0.08;0.08;;;12.10;79.70;;;;;;5006126;28;20459;-65
2023/05/23 06:22:59;;;;;;;0.32;0.32;;;12.20;79.70;;;;;;5009184;28;20045;-65
2023/05/23 06:25:24;;;;;;;0.00;0.00;;;12.30;79.20;;;;;;5007280;28;20045;-65
2023/05/23 06:27:50;;;;;;;0.00;0.00;;;12.40;78.20;;;;;;5008949;28;20076;-65
2023/05/23 06:30:15;;;;;;;0.00;0.00;;;12.30;77.00;;;;;;5004995;28;20894;-66
2023/05/23 06:32:41;;;;;;;0.00;0.00;;;12.40;77.20;;;;;;5005952;28;20050;-65
2023/05/23 06:35:07;;;;;;;0.00;0.00;;;12.40;76.80;;;;;;5002864;28;20037;-64
2023/05/23 06:37:33;;;;;;;0.00;0.00;;;12.30;76.90;;;;;;5007681;28;20073;-64
2023/05/23 06:39:59;;;;;;;0.10;0.10;;;12.30;77.50;;;;;;5008338;28;20088;-65
2023/05/23 06:42:25;;;;;;;1.13;0.95;;;12.20;77.40;;;;;;5006383;28;20447;-64
2023/05/23 06:44:51;;;;;;;0.05;0.05;;;12.30;77.60;;;;;;5008687;28;20315;-64
2023/05/23 06:47:16;;;;;;;0.00;0.00;;;12.30;77.70;;;;;;5007962;28;20041;-64
2023/05/23 06:49:42;;;;;;;0.30;0.30;;;12.30;77.90;;;;;;5008959;28;20046;-65
2023/05/23 06:52:07;;;;;;;1.67;1.33;;;12.60;76.30;;;;;;5009885;28;20053;-64
2023/05/23 06:54:33;;;;;;;1.23;1.17;;;12.50;76.20;;;;;;5040285;28;20046;-64
2023/05/23 06:56:58;;;;;;;1.75;1.65;;;12.60;76.40;;;;;;5008669;28;20219;-64
2023/05/23 06:59:24;;;;;;;0.00;0.00;;;12.50;76.10;;;;;;5008888;28;20473;-64
2023/05/23 07:01:50;;;;;;;0.15;0.15;;;12.50;75.90;;;;;;5008603;28;20046;-65
2023/05/23 07:04:15;;;;;;;0.00;0.00;;;12.50;75.60;;;;;;4990138;28;20046;-64
2023/05/23 07:06:41;;;;;;;0.68;0.68;;;12.40;75.40;;;;;;5008329;28;20128;-65
2023/05/23 07:09:07;;;;;;;0.10;0.10;;;12.40;75.90;;;;;;5008309;28;20042;-64
2023/05/23 07:11:32;;;;;;;0.00;0.00;;;12.50;75.80;;;;;;5008262;28;20076;-64
2023/05/23 07:13:58;;;;;;;0.00;0.00;;;12.50;75.30;;;;;;5006423;28;20042;-64
2023/05/23 07:16:24;;;;;;;1.23;0.80;;;12.50;76.00;;;;;;5008385;28;20376;-64
2023/05/23 07:18:49;;;;;;;0.10;0.10;;;12.60;75.90;;;;;;5008224;28;20069;-64
2023/05/23 07:21:15;;;;;;;0.30;0.30;;;12.60;75.90;;;;;;5008188;28;20046;-65
2023/05/23 07:23:40;;;;;;;0.00;0.00;;;12.60;75.70;;;;;;5005079;28;20052;-64
2023/05/23 07:26:08;;;;;;;0.00;0.00;;;12.60;75.80;;;;;;5006088;28;20050;-64
2023/05/23 07:28:34;;;;;;;0.65;0.65;;;12.60;75.90;;;;;;5005302;28;20046;-64
2023/05/23 07:31:00;;;;;;;0.08;0.08;;;12.60;75.30;;;;;;5006184;28;20052;-64
2023/05/23 07:33:26;;;;;;;2.20;2.08;;;12.70;74.50;;;;;;5008025;28;20038;-64
2023/05/23 07:35:51;;;;;;;0.00;0.00;;;12.70;75.00;;;;;;5007077;28;20061;-64
2023/05/23 07:38:17;;;;;;;0.00;0.00;;;12.90;74.30;;;;;;5008477;28;20044;-63
2023/05/23 07:40:42;;;;;;;0.20;0.20;;;12.90;73.60;;;;;;5009590;28;20050;-64
2023/05/23 07:43:08;;;;;;;0.00;0.00;;;13.00;73.30;;;;;;5008617;28;20095;-64
2023/05/23 07:45:33;;;;;;;4.13;1.45;;;13.00;73.40;;;;;;5009335;28;20045;-64
2023/05/23 07:47:59;;;;;;;0.00;0.00;;;13.10;73.00;;;;;;5009832;28;20052;-64
2023/05/23 07:50:26;;;;;;;1.52;0.75;;;13.20;72.00;;;;;;5008196;28;20061;-64
2023/05/23 07:52:52;;;;;;;0.10;0.10;;;13.10;71.50;;;;;;5009731;28;20141;-64
2023/05/23 07:55:18;;;;;;;0.10;0.10;;;13.00;70.90;;;;;;5009717;28;20121;-64
2023/05/23 07:57:43;;;;;;;0.00;0.00;;;13.00;71.60;;;;;;5009417;28;20045;-64
2023/05/23 08:00:10;;;;;;;0.60;0.60;;;13.10;72.20;;;;;;5008778;28;20065;-64
2023/05/23 08:02:36;;;;;;;0.28;0.28;;;13.00;73.10;;;;;;5008883;28;20072;-65
2023/05/23 08:05:01;;;;;;;0.00;0.00;;;13.00;72.60;;;;;;5008948;28;20080;-64
2023/05/23 08:07:27;;;;;;;0.00;0.00;;;13.10;70.10;;;;;;5008806;28;20089;-64
2023/05/23 08:09:53;;;;;;;0.00;0.00;;;13.10;70.70;;;;;;5009138;28;20510;-64
2023/05/23 08:12:18;;;;;;;0.00;0.00;;;13.10;69.60;;;;;;5008620;28;20042;-64
2023/05/23 08:14:44;;;;;;;0.00;0.00;;;13.00;70.70;;;;;;5008109;28;20044;-64
2023/05/23 08:17:11;;;;;;;0.50;0.50;;;13.10;70.80;;;;;;5009723;28;20041;-65
2023/05/23 08:19:37;;;;;;;1.55;1.42;;;13.00;70.70;;;;;;5008893;28;20850;-64
2023/05/23 08:22:03;;;;;;;0.00;0.00;;;13.00;71.70;;;;;;5007775;28;20042;-65
2023/05/23 08:24:29;;;;;;;0.00;0.00;;;13.10;71.30;;;;;;5007926;28;20045;-64
2023/05/23 08:26:55;;;;;;;0.00;0.00;;;13.00;71.20;;;;;;5008554;28;20046;-65
2023/05/23 08:29:21;;;;;;;0.38;0.38;;;12.90;71.50;;;;;;4996430;28;20046;-65
2023/05/23 08:31:46;;;;;;;2.30;2.00;;;13.10;70.90;;;;;;5004119;28;20041;-66
2023/05/23 08:34:13;;;;;;;0.00;0.00;;;13.10;70.70;;;;;;5007096;28;20056;-65
2023/05/23 08:36:39;;;;;;;2.17;1.25;;;13.20;69.90;;;;;;5005674;28;20050;-64
2023/05/23 08:39:04;;;;;;;0.00;0.00;;;13.10;70.40;;;;;;5004051;28;20069;-65
2023/05/23 08:41:30;;;;;;;0.00;0.00;;;13.20;70.30;;;;;;4989311;28;20038;-65
2023/05/23 08:43:56;;;;;;;0.20;0.20;;;13.40;70.20;;;;;;5006991;28;20077;-65
2023/05/23 08:46:22;;;;;;;4.28;2.33;;;13.60;70.50;;;;;;5006661;28;20101;-64
2023/05/23 08:48:51;;;;;;;0.10;0.10;;;13.60;70.70;;;;;;5007552;28;20435;-65
2023/05/23 08:51:19;;;;;;;0.10;0.10;;;13.70;70.40;;;;;;5009909;28;20057;-65
2023/05/23 08:53:46;;;;;;;0.55;0.35;;;13.90;69.40;;;;;;5007699;28;20108;-65
2023/05/23 08:56:12;;;;;;;0.38;0.38;;;13.90;69.40;;;;;;5010167;28;20058;-65
2023/05/23 08:58:40;;;;;;;0.20;0.20;;;14.10;69.20;;;;;;5025866;28;20038;-65
2023/05/23 09:01:08;;;;;;;0.00;0.00;;;14.10;69.00;;;;;;5007754;28;20648;-65
2023/05/23 09:03:36;;;;;;;0.00;0.00;;;14.20;69.30;;;;;;5009943;28;20395;-65
2023/05/23 09:06:04;;;;;;;0.80;0.80;;;14.10;68.60;;;;;;5009217;28;21182;-66
2023/05/23 09:08:31;;;;;;;0.00;0.00;;;14.20;69.00;;;;;;5009469;28;20112;-65
2023/05/23 09:10:56;;;;;;;0.20;0.20;;;14.10;68.20;;;;;;5009776;28;20057;-65
2023/05/23 09:13:22;;;;;;;0.00;0.00;;;14.10;68.50;;;;;;5009934;28;20041;-65
2023/05/23 09:16:01;;;;;;;0.45;0.45;;;13.90;67.30;;;;;;5008437;28;20749;-65
2023/05/23 09:18:33;;;;;;;0.10;0.10;;;13.80;68.20;;;;;;5002129;28;20065;-65
2023/05/23 09:21:00;;;;;;;0.10;0.10;;;13.90;67.10;;;;;;5008856;28;20898;-65
2023/05/23 09:23:27;;;;;;;0.20;0.20;;;14.00;66.70;;;;;;5009005;28;20057;-66
2023/05/23 09:25:53;;;;;;;0.77;0.77;;;14.00;67.50;;;;;;5007364;28;20049;-65
2023/05/23 09:28:19;;;;;;;0.77;0.77;;;14.10;67.60;;;;;;5005966;28;20552;-65
2023/05/23 09:30:44;;;;;;;0.00;0.00;;;14.10;67.80;;;;;;5008891;28;20052;-65
2023/05/23 09:33:13;;;;;;;0.00;0.00;;;14.10;68.50;;;;;;4991672;28;20054;-65
2023/05/23 09:35:43;;;;;;;0.00;0.00;;;14.00;68.50;;;;;;5009878;28;20797;-66
2023/05/23 09:38:09;;;;;;;0.43;0.43;;;13.80;68.10;;;;;;5009658;28;20041;-65
2023/05/23 09:40:35;;;;;;;0.00;0.00;;;13.70;68.90;;;;;;5009032;28;20049;-63
2023/05/23 09:43:03;;;;;;;0.00;0.00;;;13.60;68.40;;;;;;5006959;28;20372;-64
2023/05/23 09:45:32;;;;;;;0.57;0.45;;;13.60;68.90;;;;;;5009040;28;20029;-64
2023/05/23 09:47:58;;;;;;;0.93;0.93;;;13.80;68.70;;;;;;5009402;28;20128;-64
2023/05/23 09:50:30;;;;;;;0.00;0.00;;;13.90;67.40;;;;;;5009538;28;20119;-64
2023/05/23 09:52:56;;;;;;;0.03;0.03;;;14.00;67.70;;;;;;5007855;28;20042;-64
2023/05/23 09:55:23;;;;;;;0.20;0.20;;;14.10;67.20;;;;;;5001805;28;20048;-65
2023/05/23 09:57:55;;;;;;;0.00;0.00;;;14.20;65.60;;;;;;5038873;28;20053;-64
2023/05/23 10:00:22;;;;;;;0.00;0.00;;;14.40;65.40;;;;;;5004925;28;20038;-64
2023/05/23 10:03:02;;;;;;;0.00;0.00;;;14.40;65.70;;;;;;5008791;28;20050;-64
2023/05/23 10:05:43;;;;;;;0.10;0.10;;;14.50;65.80;;;;;;5009056;28;20509;-64
2023/05/23 10:08:42;;;;;;;0.00;0.00;;;14.30;65.00;;;;;;5008719;28;20115;-64
2023/05/23 10:11:13;;;;;;;8.88;2.63;;;14.30;65.50;;;;;;4982566;28;20050;-63
2023/05/23 10:13:43;;;;;;;0.00;0.00;;;14.30;65.90;;;;;;5009067;28;20049;-63
2023/05/23 10:16:22;;;;;;;0.00;0.00;;;14.30;65.60;;;;;;5009498;28;20038;-64
2023/05/23 10:18:55;;;;;;;0.00;0.00;;;14.40;66.20;;;;;;5009107;28;20069;-64
2023/05/23 10:21:30;;;;;;;0.00;0.00;;;14.50;65.80;;;;;;5008541;28;20100;-64
2023/05/23 10:24:02;;;;;;;0.00;0.00;;;14.40;65.40;;;;;;5041242;28;20120;-65
2023/05/23 10:26:28;;;;;;;1.90;1.75;;;14.30;65.60;;;;;;5008432;28;20041;-64
2023/05/23 10:28:54;;;;;;;0.10;0.10;;;14.50;65.10;;;;;;5007573;28;20073;-64
2023/05/23 10:31:21;;;;;;;0.40;0.40;;;14.40;64.90;;;;;;5000808;28;20050;-64
2023/05/23 10:34:01;;;;;;;0.10;0.10;;;14.20;65.20;;;;;;5024199;28;20048;-63
2023/05/23 10:36:47;;;;;;;0.08;0.08;;;14.20;65.30;;;;;;5007870;28;20772;-65
2023/05/23 10:39:26;;;;;;;0.00;0.00;;;14.30;64.40;;;;;;5007161;28;20050;-64
2023/05/23 10:41:57;;;;;;;0.00;0.00;;;14.40;63.70;;;;;;5009092;28;20410;-64
2023/05/23 10:44:29;;;;;;;0.00;0.00;;;14.50;63.50;;;;;;5008378;28;20057;-65
2023/05/23 10:47:00;;;;;;;;;;;14.30;63.90;;;;;;5008570;28;20736;-65
2023/05/23 10:49:46;;;;;;;0.00;0.00;;;14.40;64.90;;;;;;5007434;28;19932;-64
2023/05/23 10:52:18;;;;;;;0.00;0.00;;;14.30;64.90;;;;;;5007573;28;20308;-64
2023/05/23 10:54:49;;;;;;;0.10;0.10;;;14.20;65.80;;;;;;5007505;28;20052;-64
2023/05/23 10:57:20;;;;;;;0.00;0.00;;;14.30;65.00;;;;;;5007389;28;20449;-67
2023/05/23 10:59:49;;;;;;;0.00;0.00;;;14.40;65.00;;;;;;5007583;28;20033;-64
2023/05/23 11:02:18;;;;;;;0.43;0.38;;;14.50;64.50;;;;;;5040558;28;20046;-65
2023/05/23 11:04:44;;;;;;;5.38;3.20;;;14.50;64.60;;;;;;5007932;28;20049;-63
2023/05/23 11:07:29;;;;;;;0.88;0.85;;;14.40;63.60;;;;;;5006872;28;20065;-63
2023/05/23 11:10:07;;;;;;;1.45;1.35;;;14.50;64.50;;;;;;5003617;28;20069;-63
2023/05/23 11:12:43;;;;;;;2.15;1.95;;;14.50;65.00;;;;;;5007785;28;20446;-63
2023/05/23 11:15:19;;;;;;;0.00;0.00;;;14.40;65.10;;;;;;5006312;28;20053;-63
2023/05/23 11:17:56;;;;;;;0.00;0.00;;;14.30;65.80;;;;;;5007328;28;20050;-63
2023/05/23 11:20:26;;;;;;;0.00;0.00;;;14.30;66.20;;;;;;5039279;28;20050;-63
2023/05/23 11:23:02;;;;;;;0.00;0.00;;;14.30;65.40;;;;;;5008069;28;20431;-64
2023/05/23 11:25:41;;;;;;;0.43;0.43;;;14.30;65.20;;;;;;5007975;28;20050;-64
2023/05/23 11:28:07;;;;;;;0.80;0.28;;;14.10;65.10;;;;;;5007292;28;20037;-64
2023/05/23 11:30:38;;;;;;;0.00;0.00;;;14.10;64.90;;;;;;5007789;28;20034;-63
2023/05/23 11:33:15;;;;;;;0.00;0.00;;;14.10;64.90;;;;;;5006437;28;20180;-63
2023/05/23 11:35:48;;;;;;;1.75;1.10;;;14.10;65.20;;;;;;5005903;28;20605;-64
2023/05/23 11:38:15;;;;;;;0.68;0.68;;;14.30;64.90;;;;;;5007863;28;20037;-64
2023/05/23 11:40:46;;;;;;;1.27;1.17;;;14.50;64.10;;;;;;5007100;28;20048;-64
2023/05/23 11:43:16;;;;;;;0.55;0.55;;;14.60;62.90;;;;;;5039307;28;20092;-64
2023/05/23 11:45:42;;;;;;;0.00;0.00;;;14.60;63.70;;;;;;5006620;28;20053;-63
2023/05/23 11:48:10;;;;;;;0.50;0.50;;;14.70;62.20;;;;;;5039417;28;20086;-64
2023/05/23 11:50:51;;;;;;;3.95;1.42;;;14.90;61.80;;;;;;5007256;28;20131;-65
2023/05/23 11:53:19;;;;;;;0.20;0.20;;;14.90;61.60;;;;;;5007465;28;20573;-64
2023/05/23 11:55:57;;;;;;;0.00;0.00;;;14.90;62.30;;;;;;5007668;28;20049;-64
2023/05/23 11:58:30;;;;;;;0.00;0.00;;;15.00;61.80;;;;;;5006178;28;20042;-63
2023/05/23 12:01:07;;;;;;;0.55;0.38;;;14.80;61.90;;;;;;5006312;28;20033;-64
2023/05/23 12:03:50;;;;;;;0.45;0.45;;;14.80;62.40;;;;;;5005158;28;20133;-64
2023/05/23 12:06:17;;;;;;;0.40;0.40;;;14.90;61.70;;;;;;4989656;28;20046;-64
2023/05/23 12:08:43;;;;;;;1.17;0.65;;;14.80;62.50;;;;;;5005882;28;20033;-63
2023/05/23 12:11:09;;;;;;;1.75;1.65;;;14.70;62.90;;;;;;5003724;28;20120;-65
2023/05/23 12:13:35;;;;;;;0.00;0.00;;;14.70;62.60;;;;;;5005827;28;20050;-64
2023/05/23 12:16:01;;;;;;;0.00;0.00;;;14.60;62.00;;;;;;5005447;28;20874;-64
2023/05/23 12:18:29;;;;;;;0.00;0.00;;;14.50;62.90;;;;;;5003606;28;20172;-64
2023/05/23 12:20:59;;;;;;;0.85;0.85;;;14.60;63.20;;;;;;5006851;28;20057;-64
2023/05/23 12:23:26;;;;;;;0.20;0.20;;;14.70;61.90;;;;;;5006240;28;20529;-64
2023/05/23 12:25:54;;;;;;;0.55;0.55;;;14.80;60.20;;;;;;5011061;28;20522;-64
2023/05/23 12:28:20;;;;;;;0.00;0.00;;;14.90;59.90;;;;;;5009129;28;20042;-63
2023/05/23 12:30:46;;;;;;;0.00;0.00;;;14.80;60.40;;;;;;5006136;28;20095;-63
2023/05/23 12:33:12;;;;;;;0.10;0.10;;;14.80;59.70;;;;;;5006449;28;20049;-64
2023/05/23 12:35:42;;;;;;;2.83;1.35;;;14.60;60.30;;;;;;5010209;28;20053;-63
2023/05/23 12:38:08;;;;;;;0.00;0.00;;;14.50;60.50;;;;;;5011515;28;20034;-64
2023/05/23 12:40:35;;;;;;;0.00;0.00;;;14.40;62.20;;;;;;5011321;28;20034;-64
2023/05/23 12:43:00;;;;;;;0.00;0.00;;;14.60;61.80;;;;;;5011244;28;20494;-64
2023/05/23 12:45:35;;;;;;;1.85;1.45;;;14.80;61.80;;;;;;5009964;28;20042;-64
2023/05/23 12:48:04;;;;;;;0.05;0.05;;;15.00;60.50;;;;;;5010921;28;20459;-63
2023/05/23 12:50:30;;;;;;;0.00;0.00;;;14.90;58.30;;;;;;5009199;28;20042;-63